Wetterstation Vordersexau
Wetterdaten: Woche 20.07.15 - 26.07.15 (KW30)
Datum Zeit Temp. A. Feuchte A. Luftdruck Regen Wind Richtung Taupunkt Windchill Windben
20.07.2015 00:00 20,4 C 71 % 1013,2 hPa 0,0 l/m 0,0 km/h N-NO 15,0 C 20,4 C 0,0 km/h
20.07.2015 01:00 20,2 C 72 % 1013,0 hPa 0,0 l/m 0,0 km/h NO 15,0 C 20,2 C 0,0 km/h
20.07.2015 02:00 19,8 C 75 % 1013,2 hPa 0,0 l/m 0,0 km/h NO 15,2 C 19,8 C 0,0 km/h
20.07.2015 03:00 19,8 C 76 % 1013,2 hPa 0,0 l/m 0,0 km/h NO 15,4 C 19,8 C 0,0 km/h
20.07.2015 04:00 19,9 C 76 % 1013,2 hPa 0,0 l/m 0,0 km/h NO 15,5 C 19,9 C 0,0 km/h
20.07.2015 05:00 19,1 C 77 % 1013,2 hPa 0,0 l/m 0,0 km/h NO 15,0 C 19,1 C 0,0 km/h
20.07.2015 06:00 19,2 C 79 % 1013,3 hPa 0,0 l/m 0,0 km/h SO 15,5 C 19,2 C 0,0 km/h
20.07.2015 07:00 23,8 C 75 % 1013,4 hPa 0,0 l/m 0,0 km/h W-SW 19,1 C 23,8 C 0,0 km/h
20.07.2015 08:00 29,9 C 48 % 1013,7 hPa 0,0 l/m 3,9 km/h W 17,7 C 29,9 C 2,2 km/h
20.07.2015 09:00 31,6 C 44 % 1013,6 hPa 0,0 l/m 13,0 km/h NW 17,8 C 31,4 C 7,2 km/h
20.07.2015 10:00 32,0 C 42 % 1013,3 hPa 0,0 l/m 13,0 km/h W-NW 17,4 C 31,8 C 7,2 km/h
20.07.2015 11:00 31,1 C 44 % 1013,5 hPa 0,0 l/m 14,3 km/h SW 17,4 C 30,7 C 7,9 km/h
20.07.2015 12:00 32,6 C 41 % 1013,5 hPa 0,0 l/m 23,3 km/h SW 17,6 C 32,5 C 13,0 km/h
20.07.2015 13:00 34,4 C 39 % 1013,0 hPa 0,0 l/m 16,8 km/h W-NW 18,4 C 34,4 C 9,4 km/h
20.07.2015 14:00 35,1 C 38 % 1012,6 hPa 0,0 l/m 21,4 km/h S 18,6 C 35,1 C 11,9 km/h
20.07.2015 15:00 34,6 C 38 % 1011,9 hPa 0,0 l/m 3,2 km/h S-SO 18,2 C 34,6 C 1,8 km/h
20.07.2015 16:00 34,3 C 38 % 1011,9 hPa 0,0 l/m 3,2 km/h W-NW 17,9 C 34,3 C 1,8 km/h
20.07.2015 17:00 34,8 C 34 % 1011,6 hPa 0,0 l/m 4,5 km/h NO 16,6 C 34,8 C 2,5 km/h
20.07.2015 18:00 36,3 C 33 % 1011,5 hPa 0,0 l/m 15,6 km/h N-NO 17,4 C 36,3 C 8,6 km/h
20.07.2015 19:00 30,8 C 43 % 1011,7 hPa 0,0 l/m 5,8 km/h N-NO 16,7 C 30,8 C 3,2 km/h
20.07.2015 20:00 28,0 C 50 % 1011,9 hPa 0,0 l/m 0,0 km/h N-NO 16,6 C 28,0 C 0,0 km/h
20.07.2015 21:00 23,9 C 61 % 1012,3 hPa 0,0 l/m 0,0 km/h N-NO 15,9 C 23,9 C 0,0 km/h
20.07.2015 22:00 22,2 C 68 % 1013,1 hPa 0,0 l/m 0,0 km/h O-NO 16,0 C 22,2 C 0,0 km/h
20.07.2015 23:00 21,2 C 72 % 1013,3 hPa 0,0 l/m 0,0 km/h O 15,9 C 21,2 C 0,0 km/h
21.07.2015 00:00 20,3 C 75 % 1013,3 hPa 0,0 l/m 0,0 km/h O 15,7 C 20,3 C 0,0 km/h
21.07.2015 01:00 19,2 C 78 % 1013,7 hPa 0,0 l/m 0,0 km/h S-SO 15,3 C 19,2 C 0,0 km/h
21.07.2015 02:00 19,3 C 79 % 1014,0 hPa 0,0 l/m 0,0 km/h SO 15,6 C 19,3 C 0,0 km/h
21.07.2015 03:00 18,8 C 79 % 1013,8 hPa 0,0 l/m 0,0 km/h SO 15,1 C 18,8 C 0,0 km/h
21.07.2015 04:00 18,2 C 81 % 1013,8 hPa 0,0 l/m 0,0 km/h S-SO 14,9 C 18,2 C 0,0 km/h
21.07.2015 05:00 17,7 C 82 % 1013,9 hPa 0,0 l/m 0,0 km/h S-SO 14,6 C 17,7 C 0,0 km/h
21.07.2015 06:00 18,5 C 82 % 1014,4 hPa 0,0 l/m 0,0 km/h S-SO 15,4 C 18,5 C 0,0 km/h
21.07.2015 07:00 23,9 C 77 % 1014,5 hPa 0,0 l/m 0,0 km/h W 19,6 C 23,9 C 0,0 km/h
21.07.2015 08:00 31,2 C 52 % 1014,7 hPa 0,0 l/m 1,3 km/h W 20,1 C 31,2 C 0,7 km/h
21.07.2015 09:00 31,9 C 48 % 1014,6 hPa 0,0 l/m 0,0 km/h W 19,5 C 31,9 C 0,0 km/h
21.07.2015 10:00 32,6 C 45 % 1014,3 hPa 0,0 l/m 0,0 km/h NW 19,1 C 32,6 C 0,0 km/h
21.07.2015 11:00 32,4 C 45 % 1014,4 hPa 0,0 l/m 24,0 km/h W-NW 18,9 C 32,2 C 13,3 km/h
21.07.2015 12:00 32,4 C 44 % 1014,1 hPa 0,0 l/m 5,2 km/h W-SW 18,5 C 32,4 C 2,9 km/h
21.07.2015 13:00 34,5 C 38 % 1013,7 hPa 0,0 l/m 1,9 km/h W 18,1 C 34,5 C 1,1 km/h
21.07.2015 14:00 35,9 C 34 % 1013,3 hPa 0,0 l/m 5,8 km/h NO 17,5 C 35,9 C 3,2 km/h
21.07.2015 15:00 34,9 C 34 % 1012,8 hPa 0,0 l/m 8,4 km/h N-NO 16,7 C 34,9 C 4,7 km/h
21.07.2015 16:00 38,1 C 33 % 1012,4 hPa 0,0 l/m 0,0 km/h N-NO 19,0 C 38,1 C 0,0 km/h
21.07.2015 17:00 40,8 C 29 % 1011,9 hPa 0,0 l/m 1,9 km/h NO 19,2 C 40,8 C 1,1 km/h
21.07.2015 18:00 40,6 C 29 % 1011,5 hPa 0,0 l/m 14,3 km/h N-NO 19,0 C 40,6 C 7,9 km/h
21.07.2015 19:00 33,9 C 36 % 1011,3 hPa 0,0 l/m 0,0 km/h N-NO 16,7 C 33,9 C 0,0 km/h
21.07.2015 20:00 29,9 C 47 % 1011,5 hPa 0,0 l/m 0,0 km/h NO 17,3 C 29,9 C 0,0 km/h
21.07.2015 21:00 25,3 C 58 % 1012,0 hPa 0,0 l/m 0,0 km/h SO 16,4 C 25,3 C 0,0 km/h
21.07.2015 22:00 23,8 C 63 % 1012,3 hPa 0,0 l/m 0,0 km/h SO 16,3 C 23,8 C 0,0 km/h
21.07.2015 23:00 22,1 C 68 % 1012,2 hPa 0,0 l/m 0,0 km/h S-SO 15,9 C 22,1 C 0,0 km/h
22.07.2015 00:00 21,8 C 70 % 1012,2 hPa 0,0 l/m 7,8 km/h SO 16,1 C 21,3 C 4,3 km/h
22.07.2015 01:00 21,1 C 71 % 1012,2 hPa 0,0 l/m 0,0 km/h O 15,6 C 21,1 C 0,0 km/h
22.07.2015 02:00 19,9 C 74 % 1012,3 hPa 0,0 l/m 0,0 km/h O-NO 15,1 C 19,9 C 0,0 km/h
22.07.2015 03:00 18,9 C 78 % 1011,8 hPa 0,0 l/m 0,0 km/h S-SO 15,0 C 18,9 C 0,0 km/h
22.07.2015 04:00 18,9 C 77 % 1011,7 hPa 0,0 l/m 0,0 km/h S-SO 14,8 C 18,9 C 0,0 km/h
22.07.2015 05:00 17,9 C 79 % 1012,1 hPa 0,0 l/m 0,0 km/h O-NO 14,2 C 17,9 C 0,0 km/h
22.07.2015 06:00 19,4 C 79 % 1011,7 hPa 0,0 l/m 0,0 km/h SO 15,7 C 19,4 C 0,0 km/h
22.07.2015 07:00 21,9 C 73 % 1011,8 hPa 0,0 l/m 0,0 km/h N-NO 16,8 C 21,9 C 0,0 km/h
22.07.2015 14:00 38,8 C 29 % 1010,8 hPa 0,0 l/m 7,1 km/h N-NO 17,5 C 38,8 C 4,0 km/h
22.07.2015 15:00 31,4 C 46 % 1010,7 hPa 0,0 l/m 22,0 km/h SO 18,4 C 30,9 C 12,2 km/h
22.07.2015 16:00 21,6 C 80 % 1011,6 hPa 3,3 l/m 9,1 km/h N-NO 18,0 C 20,7 C 5,0 km/h
22.07.2015 17:00 27,3 C 74 % 1011,4 hPa 0,0 l/m 0,0 km/h SO 22,2 C 27,3 C 0,0 km/h
22.07.2015 18:00 32,8 C 53 % 1011,2 hPa 0,0 l/m 0,0 km/h S-SO 21,9 C 32,8 C 0,0 km/h
22.07.2015 19:00 27,4 C 69 % 1010,4 hPa 0,0 l/m 0,0 km/h SO 21,2 C 27,4 C 0,0 km/h
22.07.2015 20:00 25,1 C 75 % 1011,3 hPa 0,0 l/m 0,0 km/h O 20,3 C 25,1 C 0,0 km/h
22.07.2015 21:00 22,3 C 80 % 1011,9 hPa 0,0 l/m 0,0 km/h N-NO 18,7 C 22,3 C 0,0 km/h
22.07.2015 22:00 21,7 C 82 % 1012,1 hPa 0,0 l/m 0,0 km/h SO 18,5 C 21,7 C 0,0 km/h
22.07.2015 23:00 21,5 C 82 % 1012,6 hPa 0,0 l/m 0,0 km/h S-SO 18,3 C 21,5 C 0,0 km/h
23.07.2015 00:00 21,4 C 82 % 1012,9 hPa 0,0 l/m 0,0 km/h S-SO 18,2 C 21,4 C 0,0 km/h
23.07.2015 01:00 21,1 C 79 % 1013,3 hPa 2,1 l/m 0,0 km/h NW 17,3 C 21,1 C 0,0 km/h
23.07.2015 02:00 20,6 C 79 % 1013,5 hPa 0,0 l/m 0,0 km/h S 16,8 C 20,6 C 0,0 km/h
23.07.2015 03:00 19,3 C 78 % 1013,7 hPa 1,7 l/m 4,5 km/h NO 15,4 C 19,3 C 2,5 km/h
23.07.2015 04:00 19,3 C 77 % 1013,6 hPa 0,8 l/m 0,0 km/h NO 15,2 C 19,3 C 0,0 km/h
23.07.2015 05:00 19,0 C 77 % 1013,9 hPa 0,0 l/m 0,0 km/h SO 14,9 C 19,0 C 0,0 km/h
23.07.2015 06:00 18,7 C 78 % 1014,5 hPa 0,0 l/m 3,9 km/h S-SO 14,8 C 18,7 C 2,2 km/h
23.07.2015 07:00 18,9 C 77 % 1014,2 hPa 0,0 l/m 3,9 km/h S-SO 14,8 C 18,9 C 2,2 km/h
23.07.2015 08:00 20,4 C 79 % 1014,7 hPa 0,0 l/m 1,3 km/h S-SO 16,6 C 20,4 C 0,7 km/h
23.07.2015 09:00 24,4 C 77 % 1014,9 hPa 0,0 l/m 0,0 km/h W 20,1 C 24,4 C 0,0 km/h
23.07.2015 10:00 26,1 C 68 % 1015,2 hPa 0,0 l/m 0,0 km/h N-NO 19,7 C 26,1 C 0,0 km/h
23.07.2015 11:00 25,4 C 66 % 1015,4 hPa 0,0 l/m 0,0 km/h NO 18,6 C 25,4 C 0,0 km/h
23.07.2015 12:00 26,6 C 62 % 1015,1 hPa 0,0 l/m 0,0 km/h O-NO 18,7 C 26,6 C 0,0 km/h
23.07.2015 13:00 26,1 C 58 % 1014,8 hPa 0,0 l/m 0,0 km/h NO 17,2 C 26,1 C 0,0 km/h
23.07.2015 14:00 24,5 C 60 % 1014,6 hPa 0,0 l/m 0,0 km/h NO 16,2 C 24,5 C 0,0 km/h
23.07.2015 15:00 24,5 C 66 % 1014,3 hPa 0,0 l/m 0,0 km/h N-NO 17,7 C 24,5 C 0,0 km/h
23.07.2015 16:00 25,6 C 58 % 1013,9 hPa 0,0 l/m 2,6 km/h O 16,7 C 25,6 C 1,4 km/h
23.07.2015 17:00 31,4 C 41 % 1013,2 hPa 0,0 l/m 0,0 km/h NO 16,5 C 31,4 C 0,0 km/h
23.07.2015 18:00 33,0 C 37 % 1012,8 hPa 0,0 l/m 0,0 km/h N-NO 16,3 C 33,0 C 0,0 km/h
23.07.2015 19:00 28,0 C 45 % 1012,2 hPa 0,0 l/m 0,0 km/h O-NO 14,9 C 28,0 C 0,0 km/h
23.07.2015 20:00 26,6 C 48 % 1012,3 hPa 0,0 l/m 0,0 km/h O-NO 14,7 C 26,6 C 0,0 km/h
23.07.2015 21:00 23,5 C 61 % 1012,3 hPa 0,0 l/m 0,0 km/h O-NO 15,5 C 23,5 C 0,0 km/h
23.07.2015 22:00 20,1 C 70 % 1012,5 hPa 0,0 l/m 0,0 km/h SO 14,5 C 20,1 C 0,0 km/h
23.07.2015 23:00 19,4 C 75 % 1012,4 hPa 0,0 l/m 0,0 km/h SO 14,8 C 19,4 C 0,0 km/h
24.07.2015 00:00 18,3 C 79 % 1012,4 hPa 0,0 l/m 2,6 km/h O 14,6 C 18,3 C 1,4 km/h
24.07.2015 01:00 18,1 C 81 % 1012,0 hPa 0,0 l/m 0,0 km/h O-SO 14,8 C 18,1 C 0,0 km/h
24.07.2015 02:00 17,0 C 82 % 1011,7 hPa 0,0 l/m 0,0 km/h O-SO 13,9 C 17,0 C 0,0 km/h
24.07.2015 03:00 15,9 C 82 % 1011,1 hPa 0,0 l/m 0,0 km/h O-NO 12,8 C 15,9 C 0,0 km/h
24.07.2015 04:00 15,1 C 83 % 1011,0 hPa 0,0 l/m 0,0 km/h O-NO 12,2 C 15,1 C 0,0 km/h
24.07.2015 05:00 14,8 C 83 % 1010,7 hPa 0,0 l/m 0,0 km/h O-NO 11,9 C 14,8 C 0,0 km/h
24.07.2015 06:00 14,6 C 83 % 1010,5 hPa 0,0 l/m 0,0 km/h O-NO 11,7 C 14,6 C 0,0 km/h
24.07.2015 07:00 15,3 C 82 % 1010,4 hPa 0,0 l/m 0,0 km/h O-SO 12,2 C 15,3 C 0,0 km/h
24.07.2015 08:00 24,3 C 78 % 1010,2 hPa 0,0 l/m 0,0 km/h NW 20,2 C 24,3 C 0,0 km/h
24.07.2015 09:00 28,1 C 55 % 1009,6 hPa 0,0 l/m 0,0 km/h N-NW 18,2 C 28,1 C 0,0 km/h
24.07.2015 10:00 29,2 C 48 % 1009,4 hPa 0,0 l/m 0,0 km/h SW 17,0 C 29,2 C 0,0 km/h
24.07.2015 11:00 30,4 C 47 % 1008,8 hPa 0,0 l/m 0,0 km/h W-SW 17,8 C 30,4 C 0,0 km/h
24.07.2015 12:00 30,5 C 48 % 1008,3 hPa 0,0 l/m 2,6 km/h W-SW 18,2 C 30,5 C 1,4 km/h
24.07.2015 13:00 31,9 C 45 % 1007,5 hPa 0,0 l/m 0,0 km/h W-SW 18,5 C 31,9 C 0,0 km/h
24.07.2015 14:00 33,2 C 43 % 1006,5 hPa 0,0 l/m 0,0 km/h S 18,9 C 33,2 C 0,0 km/h
24.07.2015 15:00 34,5 C 41 % 1005,8 hPa 0,0 l/m 5,8 km/h W-SW 19,3 C 34,5 C 3,2 km/h
24.07.2015 16:00 33,9 C 41 % 1005,2 hPa 0,0 l/m 12,3 km/h W 18,8 C 33,9 C 6,8 km/h
24.07.2015 17:00 35,2 C 37 % 1004,3 hPa 0,0 l/m 1,9 km/h S 18,3 C 35,2 C 1,1 km/h
24.07.2015 18:00 41,5 C 25 % 1003,7 hPa 0,0 l/m 14,9 km/h W-NW 17,4 C 41,5 C 8,3 km/h
24.07.2015 19:00 33,9 C 36 % 1003,2 hPa 0,0 l/m 0,0 km/h O 16,7 C 33,9 C 0,0 km/h
24.07.2015 20:00 28,3 C 50 % 1003,1 hPa 0,0 l/m 0,0 km/h N-NO 16,9 C 28,3 C 0,0 km/h
24.07.2015 21:00 25,4 C 57 % 1003,0 hPa 0,0 l/m 0,0 km/h O-NO 16,2 C 25,4 C 0,0 km/h
24.07.2015 22:00 23,2 C 65 % 1003,8 hPa 0,0 l/m 0,0 km/h SO 16,2 C 23,2 C 0,0 km/h
24.07.2015 23:00 23,2 C 67 % 1004,2 hPa 0,0 l/m 9,7 km/h SO 16,7 C 22,3 C 5,4 km/h
25.07.2015 00:00 24,3 C 60 % 1004,0 hPa 0,0 l/m 1,9 km/h SO 16,0 C 24,3 C 1,1 km/h
25.07.2015 01:00 23,6 C 61 % 1003,7 hPa 0,0 l/m 11,7 km/h N-NO 15,6 C 22,2 C 6,5 km/h
25.07.2015 02:00 22,3 C 63 % 1005,1 hPa 0,0 l/m 0,0 km/h SO 14,9 C 22,3 C 0,0 km/h
25.07.2015 03:00 18,9 C 77 % 1005,7 hPa 4,1 l/m 1,3 km/h S-SO 14,8 C 18,9 C 0,7 km/h
25.07.2015 04:00 17,8 C 82 % 1005,5 hPa 0,4 l/m 0,0 km/h SO 14,7 C 17,8 C 0,0 km/h
25.07.2015 05:00 18,3 C 82 % 1005,3 hPa 0,0 l/m 0,0 km/h S 15,2 C 18,3 C 0,0 km/h
25.07.2015 06:00 17,9 C 82 % 1005,6 hPa 0,0 l/m 3,9 km/h W-NW 14,8 C 17,9 C 2,2 km/h
25.07.2015 07:00 19,3 C 77 % 1006,3 hPa 0,0 l/m 34,3 km/h W-SW 15,2 C 13,2 C 19,1 km/h
25.07.2015 08:00 20,5 C 71 % 1007,4 hPa 0,0 l/m 16,2 km/h W-NW 15,1 C 17,6 C 9,0 km/h
25.07.2015 09:00 19,8 C 60 % 1008,6 hPa 0,0 l/m 33,0 km/h W-SW 11,8 C 14,1 C 18,4 km/h
25.07.2015 10:00 20,7 C 57 % 1009,2 hPa 0,0 l/m 22,0 km/h W-SW 11,9 C 16,8 C 12,2 km/h
25.07.2015 11:00 23,3 C 49 % 1009,7 hPa 0,0 l/m 29,2 km/h W-NW 12,0 C 19,4 C 16,2 km/h
25.07.2015 12:00 24,1 C 46 % 1010,1 hPa 0,0 l/m 38,2 km/h NW 11,7 C 19,9 C 21,2 km/h
25.07.2015 13:00 23,9 C 42 % 1011,0 hPa 0,0 l/m 17,5 km/h W 10,2 C 21,6 C 9,7 km/h
25.07.2015 14:00 24,8 C 41 % 1011,3 hPa 0,0 l/m 24,0 km/h W 10,6 C 22,0 C 13,3 km/h
25.07.2015 15:00 24,9 C 37 % 1011,9 hPa 0,0 l/m 36,3 km/h NW 9,2 C 21,2 C 20,2 km/h
25.07.2015 16:00 23,2 C 46 % 1012,2 hPa 0,0 l/m 1,3 km/h NW 10,9 C 23,2 C 0,7 km/h
25.07.2015 17:00 21,9 C 43 % 1013,0 hPa 0,0 l/m 25,3 km/h N 8,7 C 17,9 C 14,0 km/h
25.07.2015 18:00 24,1 C 43 % 1013,6 hPa 0,0 l/m 2,6 km/h N-NO 10,7 C 24,1 C 1,4 km/h
25.07.2015 19:00 21,6 C 46 % 1013,8 hPa 0,0 l/m 0,0 km/h NW 9,5 C 21,6 C 0,0 km/h
25.07.2015 20:00 20,1 C 48 % 1014,4 hPa 0,0 l/m 13,0 km/h N-NO 8,7 C 17,9 C 7,2 km/h
25.07.2015 21:00 18,1 C 52 % 1015,5 hPa 0,0 l/m 10,4 km/h N-NO 8,1 C 16,4 C 5,8 km/h
25.07.2015 22:00 16,1 C 57 % 1016,1 hPa 0,0 l/m 0,0 km/h N-NO 7,6 C 16,1 C 0,0 km/h
25.07.2015 23:00 15,0 C 69 % 1016,7 hPa 0,0 l/m 0,0 km/h N-NO 9,4 C 15,0 C 0,0 km/h
26.07.2015 00:00 14,5 C 68 % 1016,7 hPa 0,0 l/m 0,0 km/h N-NO 8,7 C 14,5 C 0,0 km/h
26.07.2015 01:00 12,2 C 72 % 1016,6 hPa 0,0 l/m 0,0 km/h N-NO 7,3 C 12,2 C 0,0 km/h
26.07.2015 02:00 10,9 C 75 % 1016,5 hPa 0,0 l/m 0,0 km/h SO 6,6 C 10,9 C 0,0 km/h
26.07.2015 03:00 10,1 C 78 % 1016,2 hPa 0,0 l/m 0,0 km/h O 6,4 C 10,1 C 0,0 km/h
26.07.2015 04:00 9,3 C 80 % 1016,2 hPa 0,0 l/m 0,0 km/h O 6,0 C 9,3 C 0,0 km/h
26.07.2015 05:00 9,0 C 81 % 1016,2 hPa 0,0 l/m 0,0 km/h O-NO 5,9 C 9,0 C 0,0 km/h
26.07.2015 06:00 8,6 C 82 % 1015,9 hPa 0,0 l/m 0,0 km/h SO 5,7 C 8,6 C 0,0 km/h
26.07.2015 07:00 9,6 C 83 % 1015,4 hPa 0,0 l/m 0,0 km/h SO 6,9 C 9,6 C 0,0 km/h
26.07.2015 08:00 18,2 C 69 % 1015,1 hPa 0,0 l/m 0,0 km/h S-SO 12,4 C 18,2 C 0,0 km/h
26.07.2015 09:00 23,6 C 51 % 1014,8 hPa 0,0 l/m 4,5 km/h N-NO 12,9 C 23,6 C 2,5 km/h
26.07.2015 10:00 25,3 C 40 % 1013,9 hPa 0,0 l/m 0,0 km/h N 10,7 C 25,3 C 0,0 km/h
26.07.2015 11:00 24,9 C 35 % 1013,1 hPa 0,0 l/m 1,3 km/h N-NO 8,4 C 24,9 C 0,7 km/h
26.07.2015 12:00 24,9 C 36 % 1011,9 hPa 0,0 l/m 0,0 km/h W 8,8 C 24,9 C 0,0 km/h
26.07.2015 13:00 25,3 C 36 % 1011,3 hPa 0,0 l/m 0,0 km/h W-NW 9,1 C 25,3 C 0,0 km/h
26.07.2015 14:00 25,9 C 37 % 1010,1 hPa 0,0 l/m 0,0 km/h W 10,1 C 25,9 C 0,0 km/h
26.07.2015 15:00 26,6 C 36 % 1009,3 hPa 0,0 l/m 8,4 km/h SW 10,3 C 26,2 C 4,7 km/h
26.07.2015 16:00 23,8 C 41 % 1008,2 hPa 0,0 l/m 7,8 km/h W 9,7 C 23,4 C 4,3 km/h
26.07.2015 17:00 21,8 C 47 % 1007,8 hPa 0,0 l/m 0,0 km/h W-NW 10,0 C 21,8 C 0,0 km/h
26.07.2015 18:00 21,8 C 48 % 1007,4 hPa 0,0 l/m 0,0 km/h SW 10,3 C 21,8 C 0,0 km/h
26.07.2015 19:00 19,3 C 61 % 1008,0 hPa 0,0 l/m 0,0 km/h S-SO 11,6 C 19,3 C 0,0 km/h
26.07.2015 20:00 16,1 C 78 % 1008,2 hPa 1,2 l/m 0,0 km/h SO 12,3 C 16,1 C 0,0 km/h
26.07.2015 21:00 15,2 C 81 % 1007,9 hPa 0,8 l/m 0,0 km/h SO 12,0 C 15,2 C 0,0 km/h
26.07.2015 22:00 14,8 C 82 % 1007,8 hPa 0,0 l/m 3,2 km/h W 11,8 C 14,8 C 1,8 km/h
26.07.2015 23:00 15,4 C 80 % 1007,4 hPa 0,0 l/m 0,0 km/h S-SO 12,0 C 15,4 C 0,0 km/h
Min-Datum _ 26.07.15 24.07.15 24.07.15 - 20.07.15 - 26.07.15 26.07.15 20.07.15
_ Min-Zeit 06:04 18:04 21:04 - 00:51 - 06:04 06:04 00:51
Minimum _ 8,6 C 25 % 1003,0 hPa - 0,0 km/h - 5,7 C 8,6 C 0,0 km/h
Max-Datum _ 24.07.15 24.07.15 25.07.15 25.07.15 25.07.15 - 22.07.15 24.07.15 25.07.15
_ Max-Zeit 18:04 04:04 23:04 03:04 12:04 - 17:04 18:04 12:04
Maximum _ 41,5 C 83 % 1016,7 hPa 4,1 l/m 38,2 km/h
NW
- 22,2 C 41,5 C 21,2 km/h
NW
Durchschnitt _ 23,9 C 61 % 1011,6 hPa #14,5 l/m 4,1 km/h N-NO 15,0 C 23,6 C 2,3 km/h
www.sexauwetter.de